createdAt,value
2023-05-04T00:00:22.869Z,49.33
2023-05-04T00:03:16.697Z,49.39
2023-05-04T00:06:12.661Z,49.46
2023-05-04T00:09:02.763Z,49.47
2023-05-04T00:11:57.103Z,49.63
2023-05-04T00:14:47.189Z,49.84
2023-05-04T00:17:37.781Z,49.95
2023-05-04T00:20:30.450Z,49.95
2023-05-04T00:23:19.538Z,50.06
2023-05-04T00:26:08.776Z,50.23
2023-05-04T00:28:57.833Z,50.26
2023-05-04T00:31:50.032Z,50.23
2023-05-04T00:34:40.438Z,50.22
2023-05-04T00:37:19.557Z,50.36
2023-05-04T00:40:01.231Z,50.62
2023-05-04T00:42:50.883Z,50.56
2023-05-04T00:46:31.316Z,50.75
2023-05-04T00:48:53.578Z,50.68
2023-05-04T00:51:31.029Z,50.71
2023-05-04T00:54:25.622Z,50.83
2023-05-04T00:57:16.783Z,50.81
2023-05-04T00:59:58.903Z,50.81
2023-05-04T01:02:49.412Z,50.91
2023-05-04T01:05:43.214Z,50.89
2023-05-04T01:08:37.499Z,50.95
2023-05-04T01:11:32.384Z,51.12
2023-05-04T01:14:25.029Z,51.26
2023-05-04T01:17:17.741Z,51.52
2023-05-04T01:20:11.112Z,51.40
2023-05-04T01:23:00.931Z,51.36
2023-05-04T01:25:57.897Z,51.54
2023-05-04T01:28:52.845Z,51.94
2023-05-04T01:31:36.623Z,51.89
2023-05-04T01:34:25.969Z,51.84
2023-05-04T01:37:15.543Z,51.92
2023-05-04T01:39:59.211Z,51.99
2023-05-04T01:42:49.309Z,52.19
2023-05-04T01:45:39.074Z,52.25
2023-05-04T01:48:36.314Z,52.31
2023-05-04T01:51:25.687Z,52.48
2023-05-04T01:54:16.606Z,52.46
2023-05-04T01:57:05.666Z,52.37
2023-05-04T01:59:57.378Z,52.48
2023-05-04T02:02:46.563Z,52.45
2023-05-04T02:05:35.981Z,52.58
2023-05-04T02:08:26.898Z,52.67
2023-05-04T02:11:05.069Z,52.60
2023-05-04T02:13:54.172Z,52.58
2023-05-04T02:16:43.896Z,52.77
2023-05-04T02:19:33.229Z,52.78
2023-05-04T02:22:21.468Z,52.69
2023-05-04T02:25:10.777Z,52.71
2023-05-04T02:28:00.457Z,52.81
2023-05-04T02:30:51.603Z,52.94
2023-05-04T02:33:43.249Z,53.08
2023-05-04T02:36:32.498Z,53.10
2023-05-04T02:39:15.646Z,53.15
2023-05-04T02:42:05.704Z,53.20
2023-05-04T02:44:39.915Z,53.22
2023-05-04T02:47:19.738Z,53.20
2023-05-04T02:49:48.912Z,53.21
2023-05-04T02:52:39.656Z,53.40
2023-05-04T02:55:28.390Z,53.36
2023-05-04T02:58:19.280Z,53.44
2023-05-04T03:01:06.623Z,53.75
2023-05-04T03:03:47.317Z,53.77
2023-05-04T03:06:36.836Z,53.94
2023-05-04T03:09:34.361Z,53.88
2023-05-04T03:12:24.047Z,53.93
2023-05-04T03:15:06.211Z,53.90
2023-05-04T03:17:55.513Z,53.95
2023-05-04T03:20:45.715Z,53.94
2023-05-04T03:23:35.767Z,54.23
2023-05-04T03:26:25.580Z,54.38
2023-05-04T03:29:15.389Z,54.49
2023-05-04T03:32:05.068Z,54.49
2023-05-04T03:34:54.298Z,54.35
2023-05-04T03:37:44.709Z,54.40
2023-05-04T03:40:34.011Z,54.43
2023-05-04T03:43:26.202Z,54.42
2023-05-04T03:46:31.784Z,54.59
2023-05-04T03:49:21.377Z,54.70
2023-05-04T03:52:10.849Z,55.01
2023-05-04T03:55:00.097Z,55.17
2023-05-04T03:58:13.343Z,55.02
2023-05-04T04:01:03.335Z,54.84
2023-05-04T04:03:36.300Z,55.02
2023-05-04T04:06:25.947Z,55.11
2023-05-04T04:09:15.604Z,55.00
2023-05-04T04:12:06.385Z,55.05
2023-05-04T04:14:56.002Z,55.15
2023-05-04T04:17:45.520Z,55.16
2023-05-04T04:20:28.102Z,56.31
2023-05-04T04:23:18.859Z,57.26
2023-05-04T04:26:09.903Z,57.32
2023-05-04T04:29:00.578Z,57.22
2023-05-04T04:31:51.394Z,57.00
2023-05-04T04:34:46.379Z,56.56
2023-05-04T04:37:31.467Z,56.41
2023-05-04T04:40:22.094Z,56.39
2023-05-04T04:43:07.569Z,56.29
2023-05-04T04:46:00.311Z,56.20
2023-05-04T04:48:52.251Z,56.10
2023-05-04T04:51:44.376Z,56.12
2023-05-04T04:54:33.812Z,55.74
2023-05-04T04:57:24.161Z,55.15
2023-05-04T05:00:16.721Z,54.60
2023-05-04T05:03:05.813Z,54.07
2023-05-04T05:06:01.487Z,53.67
2023-05-04T05:08:51.045Z,53.37
2023-05-04T05:11:42.434Z,52.36
2023-05-04T05:14:31.865Z,51.82
2023-05-04T05:17:26.228Z,51.36
2023-05-04T05:20:14.874Z,50.88
2023-05-04T05:23:25.541Z,50.24
2023-05-04T05:26:14.930Z,50.15
2023-05-04T05:29:06.772Z,49.53
2023-05-04T05:31:57.992Z,48.14
2023-05-04T05:34:52.071Z,47.30
2023-05-04T05:37:41.144Z,47.28
2023-05-04T05:40:31.462Z,47.53
2023-05-04T05:44:23.596Z,47.16
2023-05-04T05:46:32.178Z,47.07
2023-05-04T05:49:21.721Z,46.82
2023-05-04T05:52:11.394Z,46.88
2023-05-04T05:55:05.024Z,46.51
2023-05-04T05:57:56.524Z,46.41
2023-05-04T06:00:45.997Z,46.40
2023-05-04T06:03:35.592Z,45.66
2023-05-04T06:06:25.240Z,45.89
2023-05-04T06:09:16.551Z,46.27
2023-05-04T06:12:11.921Z,46.00
2023-05-04T06:15:01.842Z,46.08
2023-05-04T06:17:51.719Z,46.33
2023-05-04T06:20:41.325Z,46.14
2023-05-04T06:23:36.761Z,46.39
2023-05-04T06:26:30.507Z,46.32
2023-05-04T06:29:19.939Z,46.35
2023-05-04T06:32:10.754Z,46.22
2023-05-04T06:35:09.202Z,46.51
2023-05-04T06:37:58.714Z,46.55
2023-05-04T06:40:49.537Z,46.78
2023-05-04T06:43:42.237Z,46.52
2023-05-04T06:46:37.730Z,46.52
2023-05-04T06:49:32.102Z,46.58
2023-05-04T06:52:24.094Z,46.11
2023-05-04T06:55:13.716Z,46.44
2023-05-04T06:58:04.635Z,46.29
2023-05-04T07:00:54.103Z,46.04
2023-05-04T07:03:44.559Z,46.07
2023-05-04T07:06:34.618Z,46.15
2023-05-04T07:09:24.661Z,46.37
2023-05-04T07:12:14.224Z,46.21
2023-05-04T07:15:03.627Z,45.97
2023-05-04T07:17:53.034Z,45.91
2023-05-04T07:20:43.539Z,46.04
2023-05-04T07:23:32.748Z,46.02
2023-05-04T07:26:22.212Z,45.78
2023-05-04T07:29:12.643Z,45.87
2023-05-04T07:32:02.037Z,45.96
2023-05-04T07:34:51.116Z,46.01
2023-05-04T07:37:40.507Z,45.83
2023-05-04T07:40:33.004Z,45.66
2023-05-04T07:43:22.623Z,45.37
2023-05-04T07:46:16.086Z,45.78
2023-05-04T07:49:06.182Z,45.61
2023-05-04T07:51:55.655Z,45.66
2023-05-04T07:54:45.235Z,45.32
2023-05-04T07:57:37.314Z,45.53
2023-05-04T08:00:29.054Z,45.46
2023-05-04T08:03:18.733Z,45.44
2023-05-04T08:06:26.222Z,45.19
2023-05-04T08:08:56.375Z,45.11
2023-05-04T08:11:44.240Z,44.77
2023-05-04T08:14:34.911Z,44.88
2023-05-04T08:17:51.664Z,44.86
2023-05-04T08:20:41.722Z,44.83
2023-05-04T08:23:34.572Z,44.57
2023-05-04T08:26:24.058Z,44.65
2023-05-04T08:29:14.914Z,44.53
2023-05-04T08:32:05.301Z,44.68
2023-05-04T08:34:56.102Z,44.58
2023-05-04T08:37:46.148Z,44.34
2023-05-04T08:40:35.876Z,44.37
2023-05-04T08:43:26.945Z,44.26
2023-05-04T08:46:21.587Z,44.22
2023-05-04T08:49:11.634Z,44.34
2023-05-04T08:52:19.745Z,44.47
2023-05-04T08:55:23.905Z,43.94
2023-05-04T08:58:25.621Z,43.97
2023-05-04T09:01:16.386Z,43.35
2023-05-04T09:04:23.564Z,43.06
2023-05-04T09:07:37.699Z,42.95
2023-05-04T09:11:57.842Z,42.61
2023-05-04T09:14:48.813Z,42.36
2023-05-04T09:21:43.384Z,41.98
2023-05-04T09:24:36.003Z,41.76
2023-05-04T09:31:18.370Z,41.34
2023-05-04T09:34:10.887Z,41.33
2023-05-04T09:40:17.470Z,40.87
2023-05-04T09:43:07.968Z,40.62
2023-05-04T09:46:01.096Z,40.54
2023-05-04T09:48:56.311Z,40.49
2023-05-04T09:51:46.678Z,40.01
2023-05-04T09:54:41.226Z,39.90
2023-05-04T09:57:34.468Z,39.76
2023-05-04T10:00:24.146Z,39.38
2023-05-04T10:03:15.323Z,39.65
2023-05-04T10:06:05.823Z,39.42
2023-05-04T10:08:56.480Z,39.23
2023-05-04T10:11:46.322Z,39.35
2023-05-04T10:14:36.692Z,38.98
2023-05-04T10:17:43.024Z,38.89
2023-05-04T10:20:52.132Z,38.42
2023-05-04T10:24:02.917Z,38.18
2023-05-04T10:27:02.910Z,38.30
2023-05-04T10:29:54.456Z,38.36
2023-05-04T10:32:44.751Z,38.14
2023-05-04T10:35:38.246Z,37.96
2023-05-04T10:38:33.853Z,37.80
2023-05-04T10:41:16.619Z,37.65
2023-05-04T10:44:06.322Z,37.29
2023-05-04T10:47:04.837Z,37.43
2023-05-04T10:50:03.727Z,37.21
2023-05-04T10:52:53.997Z,37.07
2023-05-04T10:55:45.114Z,36.85
2023-05-04T10:58:36.362Z,36.90
2023-05-04T11:01:13.163Z,36.54
2023-05-04T11:03:58.285Z,36.27
2023-05-04T11:06:58.872Z,36.39
2023-05-04T11:09:39.713Z,35.65
2023-05-04T11:12:21.180Z,35.94
2023-05-04T11:15:12.038Z,35.95
2023-05-04T11:18:03.142Z,35.74
2023-05-04T11:20:58.313Z,35.91
2023-05-04T11:23:54.635Z,36.05
2023-05-04T11:26:49.130Z,35.95
2023-05-04T11:29:30.405Z,35.64
2023-05-04T11:32:20.515Z,35.71
2023-05-04T11:35:18.862Z,35.49
2023-05-04T11:38:08.322Z,35.37
2023-05-04T11:40:59.868Z,35.64
2023-05-04T11:43:49.240Z,35.58
2023-05-04T11:46:43.389Z,35.30
2023-05-04T11:49:33.449Z,35.13
2023-05-04T11:52:25.813Z,35.28
2023-05-04T11:55:29.362Z,35.26
2023-05-04T11:58:25.623Z,34.85
2023-05-04T12:01:17.528Z,34.88
2023-05-04T12:04:11.506Z,34.86
2023-05-04T12:07:06.568Z,34.78
2023-05-04T12:09:57.016Z,34.68
2023-05-04T12:12:47.713Z,34.49
2023-05-04T12:15:37.491Z,34.32
2023-05-04T12:18:33.133Z,34.13
2023-05-04T12:21:22.592Z,33.89
2023-05-04T12:24:12.118Z,34.02
2023-05-04T12:27:02.329Z,34.05
2023-05-04T12:29:52.250Z,33.78
2023-05-04T12:32:43.536Z,33.96
2023-05-04T12:35:34.002Z,33.80
2023-05-04T12:38:25.801Z,33.88
2023-05-04T12:41:18.276Z,33.62
2023-05-04T12:44:11.281Z,33.74
2023-05-04T12:47:01.440Z,33.71
2023-05-04T12:50:00.743Z,33.72
2023-05-04T12:52:49.813Z,33.70
2023-05-04T12:55:38.801Z,33.39
2023-05-04T12:58:32.292Z,33.53
2023-05-04T13:01:23.057Z,33.42
2023-05-04T13:04:13.673Z,33.16
2023-05-04T13:07:04.484Z,33.27
2023-05-04T13:09:55.094Z,33.26
2023-05-04T13:12:46.215Z,33.34
2023-05-04T13:15:36.852Z,33.44
2023-05-04T13:18:27.309Z,33.48
2023-05-04T13:21:18.782Z,33.36
2023-05-04T13:24:10.855Z,33.44
2023-05-04T13:27:00.848Z,33.42
2023-05-04T13:29:50.832Z,33.21
2023-05-04T13:32:40.119Z,33.11
2023-05-04T13:35:29.741Z,33.27
2023-05-04T13:38:18.967Z,33.41
2023-05-04T13:41:09.029Z,33.35
2023-05-04T13:43:58.612Z,33.39
2023-05-04T13:46:48.305Z,33.27
2023-05-04T13:49:38.175Z,33.24
2023-05-04T13:52:32.356Z,33.14
2023-05-04T13:55:21.983Z,33.19
2023-05-04T13:58:11.572Z,33.16
2023-05-04T14:01:01.040Z,33.12
2023-05-04T14:03:53.070Z,32.80
2023-05-04T14:06:42.348Z,32.88
2023-05-04T14:09:34.479Z,32.73
2023-05-04T14:12:24.663Z,32.55
2023-05-04T14:15:16.503Z,32.60
2023-05-04T14:18:07.345Z,32.81
2023-05-04T14:20:39.696Z,32.51
2023-05-04T14:23:30.470Z,32.66
2023-05-04T14:26:22.940Z,32.79
2023-05-04T14:29:14.170Z,32.43
2023-05-04T14:32:05.049Z,32.61
2023-05-04T14:34:34.400Z,32.90
2023-05-04T14:37:17.492Z,32.84
2023-05-04T14:40:09.630Z,32.74
2023-05-04T14:43:02.763Z,32.67
2023-05-04T14:45:52.798Z,32.89
2023-05-04T14:48:43.269Z,32.87
2023-05-04T14:51:34.948Z,32.74
2023-05-04T14:54:17.695Z,32.82
2023-05-04T14:57:08.610Z,32.86
2023-05-04T14:59:59.702Z,32.81
2023-05-04T15:02:49.440Z,32.73
2023-05-04T15:05:41.840Z,32.71
2023-05-04T15:08:31.819Z,32.79
2023-05-04T15:11:22.129Z,32.73
2023-05-04T15:14:15.797Z,32.84
2023-05-04T15:17:05.069Z,32.87
2023-05-04T15:19:56.817Z,32.88
2023-05-04T15:22:48.558Z,32.85
2023-05-04T15:25:39.485Z,32.95
2023-05-04T15:28:29.678Z,32.85
2023-05-04T15:31:21.160Z,33.05
2023-05-04T15:34:11.185Z,32.98
2023-05-04T15:37:05.421Z,32.92
2023-05-04T15:39:55.053Z,32.93
2023-05-04T15:42:44.255Z,32.79
2023-05-04T15:45:33.516Z,32.85
2023-05-04T15:48:23.871Z,32.98
2023-05-04T15:51:14.205Z,32.70
2023-05-04T15:54:03.900Z,32.94
2023-05-04T15:56:54.004Z,33.08
2023-05-04T15:59:43.652Z,32.93
2023-05-04T16:02:27.732Z,33.09
2023-05-04T16:05:16.974Z,33.18
2023-05-04T16:08:06.665Z,33.06
2023-05-04T16:10:57.861Z,33.12
2023-05-04T16:13:48.002Z,33.05
2023-05-04T16:16:39.330Z,33.01
2023-05-04T16:19:28.462Z,33.12
2023-05-04T16:22:18.622Z,33.04
2023-05-04T16:25:11.921Z,33.06
2023-05-04T16:27:52.544Z,33.23
2023-05-04T16:30:42.542Z,33.18
2023-05-04T16:33:32.068Z,33.03
2023-05-04T16:36:21.867Z,33.08
2023-05-04T16:39:05.348Z,32.97
2023-05-04T16:41:54.507Z,33.18
2023-05-04T16:44:44.208Z,33.30
2023-05-04T16:47:34.564Z,33.31
2023-05-04T16:50:25.235Z,33.35
2023-05-04T16:53:17.772Z,33.29
2023-05-04T16:56:23.847Z,33.39
2023-05-04T16:59:15.083Z,33.26
2023-05-04T17:02:04.749Z,33.26
2023-05-04T17:05:20.748Z,33.21
2023-05-04T17:08:46.087Z,33.48
2023-05-04T17:11:40.779Z,33.26
2023-05-04T17:21:53.716Z,33.14
2023-05-04T17:25:10.819Z,33.25
2023-05-04T17:28:25.591Z,33.37
2023-05-04T17:31:50.598Z,33.50
2023-05-04T17:43:15.764Z,33.71
2023-05-04T17:47:55.582Z,33.87
2023-05-04T17:50:03.299Z,34.12
2023-05-04T17:52:55.731Z,34.16
2023-05-04T17:55:45.664Z,34.19
2023-05-04T17:58:35.178Z,34.31
2023-05-04T18:01:24.510Z,34.45
2023-05-04T18:04:14.307Z,34.63
2023-05-04T18:07:03.859Z,34.68
2023-05-04T18:09:53.582Z,34.73
2023-05-04T18:12:42.979Z,34.90
2023-05-04T18:15:32.716Z,35.06
2023-05-04T18:18:22.247Z,35.08
2023-05-04T18:21:11.168Z,35.37
2023-05-04T18:23:52.208Z,35.56
2023-05-04T18:26:43.723Z,35.77
2023-05-04T18:29:33.519Z,35.92
2023-05-04T18:32:22.611Z,36.05
2023-05-04T18:35:12.606Z,36.10
2023-05-04T18:38:01.824Z,36.43
2023-05-04T18:40:54.076Z,36.56
2023-05-04T18:43:43.120Z,36.62
2023-05-04T18:46:32.577Z,36.85
2023-05-04T18:49:21.863Z,36.86
2023-05-04T18:52:12.284Z,37.10
2023-05-04T18:55:01.231Z,37.12
2023-05-04T18:57:53.396Z,37.27
2023-05-04T19:00:45.987Z,37.51
2023-05-04T19:03:35.114Z,37.57
2023-05-04T19:06:25.712Z,37.77
2023-05-04T19:09:15.675Z,37.82
2023-05-04T19:12:05.496Z,37.92
2023-05-04T19:14:56.662Z,38.09
2023-05-04T19:17:45.924Z,38.02
2023-05-04T19:20:20.883Z,38.04
2023-05-04T19:22:52.362Z,38.05
2023-05-04T19:25:35.258Z,38.27
2023-05-04T19:28:17.759Z,38.32
2023-05-04T19:31:07.355Z,38.48
2023-05-04T19:33:59.727Z,38.66
2023-05-04T19:36:48.946Z,38.73
2023-05-04T19:39:39.428Z,38.90
2023-05-04T19:42:34.728Z,38.94
2023-05-04T19:45:16.698Z,39.01
2023-05-04T19:48:06.102Z,39.13
2023-05-04T19:50:57.094Z,39.20
2023-05-04T19:53:46.472Z,39.37
2023-05-04T19:56:35.615Z,39.49
2023-05-04T19:59:25.305Z,39.59
2023-05-04T20:02:15.425Z,39.51
2023-05-04T20:05:05.905Z,39.77
2023-05-04T20:07:57.180Z,39.80
2023-05-04T20:10:46.677Z,39.88
2023-05-04T20:13:39.558Z,40.10
2023-05-04T20:16:30.498Z,40.17
2023-05-04T20:19:20.444Z,40.37
2023-05-04T20:22:11.869Z,40.25
2023-05-04T20:25:01.644Z,40.37
2023-05-04T20:27:33.671Z,40.37
2023-05-04T20:30:23.253Z,40.30
2023-05-04T20:33:06.735Z,40.43
2023-05-04T20:36:06.235Z,40.34
2023-05-04T20:38:58.002Z,40.41
2023-05-04T20:41:41.921Z,40.44
2023-05-04T20:44:34.517Z,40.45
2023-05-04T20:47:26.167Z,40.49
2023-05-04T20:50:17.279Z,40.50
2023-05-04T20:53:06.334Z,40.41
2023-05-04T20:55:59.293Z,40.49
2023-05-04T20:58:48.218Z,40.55
2023-05-04T21:01:36.388Z,40.65
2023-05-04T21:04:25.560Z,40.71
2023-05-04T21:07:14.599Z,40.57
2023-05-04T21:10:04.226Z,40.60
2023-05-04T21:12:53.379Z,40.77
2023-05-04T21:15:42.646Z,40.73
2023-05-04T21:18:25.109Z,40.92
2023-05-04T21:21:14.668Z,40.83
2023-05-04T21:24:11.843Z,41.05
2023-05-04T21:26:53.505Z,41.10
2023-05-04T21:29:42.818Z,41.26
2023-05-04T21:32:32.560Z,41.24
2023-05-04T21:35:21.823Z,41.33
2023-05-04T21:38:21.156Z,41.29
2023-05-04T21:41:12.785Z,41.39
2023-05-04T21:44:02.184Z,41.61
2023-05-04T21:46:51.587Z,41.56
2023-05-04T21:49:41.236Z,41.64
2023-05-04T21:52:32.289Z,41.55
2023-05-04T21:55:21.496Z,41.75
2023-05-04T21:58:10.803Z,41.84
2023-05-04T22:01:00.842Z,41.87
2023-05-04T22:03:49.950Z,41.95
2023-05-04T22:06:38.947Z,42.00
2023-05-04T22:09:28.587Z,42.09
2023-05-04T22:12:17.833Z,42.24
2023-05-04T22:15:10.474Z,42.24
2023-05-04T22:17:52.354Z,42.31
2023-05-04T22:20:43.127Z,42.26
2023-05-04T22:23:35.626Z,42.39
2023-05-04T22:26:25.134Z,42.38
2023-05-04T22:29:14.448Z,42.38
2023-05-04T22:32:03.669Z,42.43
2023-05-04T22:34:53.911Z,42.51
2023-05-04T22:37:43.136Z,42.71
2023-05-04T22:40:32.687Z,42.75
2023-05-04T22:43:22.279Z,42.77
2023-05-04T22:46:15.986Z,42.95
2023-05-04T22:49:05.337Z,43.04
2023-05-04T22:51:55.811Z,43.02
2023-05-04T22:54:45.199Z,42.99
2023-05-04T22:57:15.221Z,43.03
2023-05-04T23:00:09.321Z,43.16
2023-05-04T23:02:58.816Z,43.24
2023-05-04T23:05:47.120Z,43.28
2023-05-04T23:08:35.493Z,43.29
2023-05-04T23:11:25.142Z,43.41
2023-05-04T23:14:15.417Z,43.48
2023-05-04T23:17:04.885Z,43.48
2023-05-04T23:19:54.052Z,43.58
2023-05-04T23:22:37.745Z,43.73
2023-05-04T23:25:14.735Z,43.77
2023-05-04T23:27:59.133Z,43.85
2023-05-04T23:30:33.852Z,43.94
2023-05-04T23:33:23.081Z,43.98
2023-05-04T23:36:12.578Z,44.06
2023-05-04T23:39:02.353Z,44.13
2023-05-04T23:41:53.747Z,44.15
2023-05-04T23:44:43.013Z,44.32
2023-05-04T23:47:33.970Z,44.44
2023-05-04T23:50:23.110Z,44.46
2023-05-04T23:53:07.913Z,44.63
2023-05-04T23:56:04.243Z,44.58
2023-05-04T23:58:53.803Z,44.69
